sensor_id;sensor_type;location;lat;lon;timestamp;P1;durP1;ratioP1;P2;durP2;ratioP2
11767;SDS011;5941;57.652;12.514;2023-07-29T00:02:12;744.13;;;704.67;;
11767;SDS011;5941;57.652;12.514;2023-07-29T00:04:38;743.70;;;704.57;;
11767;SDS011;5941;57.652;12.514;2023-07-29T00:07:04;759.67;;;719.20;;
11767;SDS011;5941;57.652;12.514;2023-07-29T00:09:30;744.73;;;705.00;;
11767;SDS011;5941;57.652;12.514;2023-07-29T00:11:56;762.30;;;720.60;;
11767;SDS011;5941;57.652;12.514;2023-07-29T00:14:22;754.20;;;713.93;;
11767;SDS011;5941;57.652;12.514;2023-07-29T00:16:48;731.63;;;694.53;;
11767;SDS011;5941;57.652;12.514;2023-07-29T00:19:14;708.37;;;672.43;;
11767;SDS011;5941;57.652;12.514;2023-07-29T00:21:40;714.63;;;678.90;;
11767;SDS011;5941;57.652;12.514;2023-07-29T00:24:06;715.50;;;679.17;;
11767;SDS011;5941;57.652;12.514;2023-07-29T00:26:32;736.93;;;698.83;;
11767;SDS011;5941;57.652;12.514;2023-07-29T00:28:58;733.53;;;695.93;;
11767;SDS011;5941;57.652;12.514;2023-07-29T00:31:24;701.37;;;666.47;;
11767;SDS011;5941;57.652;12.514;2023-07-29T00:33:50;703.90;;;668.57;;
11767;SDS011;5941;57.652;12.514;2023-07-29T00:36:17;727.37;;;690.20;;
11767;SDS011;5941;57.652;12.514;2023-07-29T00:38:44;758.77;;;718.23;;
11767;SDS011;5941;57.652;12.514;2023-07-29T00:41:10;778.30;;;734.77;;
11767;SDS011;5941;57.652;12.514;2023-07-29T00:43:38;773.63;;;730.77;;
11767;SDS011;5941;57.652;12.514;2023-07-29T00:46:04;788.67;;;745.03;;
11767;SDS011;5941;57.652;12.514;2023-07-29T00:48:30;786.30;;;742.70;;
11767;SDS011;5941;57.652;12.514;2023-07-29T00:50:56;798.93;;;754.73;;
11767;SDS011;5941;57.652;12.514;2023-07-29T00:53:22;778.23;;;735.47;;
11767;SDS011;5941;57.652;12.514;2023-07-29T00:55:48;777.97;;;734.93;;
11767;SDS011;5941;57.652;12.514;2023-07-29T00:58:14;775.30;;;732.80;;
11767;SDS011;5941;57.652;12.514;2023-07-29T01:00:40;760.43;;;720.00;;
11767;SDS011;5941;57.652;12.514;2023-07-29T01:03:07;765.03;;;724.57;;
11767;SDS011;5941;57.652;12.514;2023-07-29T01:05:36;760.43;;;720.07;;
11767;SDS011;5941;57.652;12.514;2023-07-29T01:08:06;748.80;;;709.43;;
11767;SDS011;5941;57.652;12.514;2023-07-29T01:13:36;738.67;;;700.40;;
11767;SDS011;5941;57.652;12.514;2023-07-29T01:16:25;727.80;;;689.90;;
11767;SDS011;5941;57.652;12.514;2023-07-29T01:18:49;731.37;;;693.37;;
11767;SDS011;5941;57.652;12.514;2023-07-29T01:21:16;721.60;;;683.87;;
11767;SDS011;5941;57.652;12.514;2023-07-29T01:23:43;719.50;;;683.03;;
11767;SDS011;5941;57.652;12.514;2023-07-29T01:26:09;730.50;;;692.40;;
11767;SDS011;5941;57.652;12.514;2023-07-29T01:28:35;709.87;;;673.77;;
11767;SDS011;5941;57.652;12.514;2023-07-29T01:31:03;717.90;;;681.53;;
11767;SDS011;5941;57.652;12.514;2023-07-29T01:33:33;727.17;;;689.93;;
11767;SDS011;5941;57.652;12.514;2023-07-29T01:36:02;719.07;;;682.80;;
11767;SDS011;5941;57.652;12.514;2023-07-29T01:38:38;739.10;;;700.63;;
11767;SDS011;5941;57.652;12.514;2023-07-29T01:41:07;749.77;;;710.73;;
11767;SDS011;5941;57.652;12.514;2023-07-29T01:43:33;753.53;;;713.30;;
11767;SDS011;5941;57.652;12.514;2023-07-29T01:46:04;744.07;;;704.93;;
11767;SDS011;5941;57.652;12.514;2023-07-29T01:48:30;737.97;;;699.57;;
11767;SDS011;5941;57.652;12.514;2023-07-29T01:50:57;747.30;;;708.03;;
11767;SDS011;5941;57.652;12.514;2023-07-29T01:53:23;757.17;;;716.77;;
11767;SDS011;5941;57.652;12.514;2023-07-29T01:55:49;764.03;;;722.90;;
11767;SDS011;5941;57.652;12.514;2023-07-29T01:58:15;752.57;;;713.03;;
11767;SDS011;5941;57.652;12.514;2023-07-29T02:00:41;735.27;;;697.10;;
11767;SDS011;5941;57.652;12.514;2023-07-29T02:03:07;735.50;;;696.80;;
11767;SDS011;5941;57.652;12.514;2023-07-29T02:05:33;752.03;;;712.37;;
11767;SDS011;5941;57.652;12.514;2023-07-29T02:07:59;740.97;;;701.77;;
11767;SDS011;5941;57.652;12.514;2023-07-29T02:10:25;745.90;;;706.87;;
11767;SDS011;5941;57.652;12.514;2023-07-29T02:12:51;738.07;;;699.17;;
11767;SDS011;5941;57.652;12.514;2023-07-29T02:15:17;732.77;;;694.83;;
11767;SDS011;5941;57.652;12.514;2023-07-29T02:17:43;727.77;;;690.70;;
11767;SDS011;5941;57.652;12.514;2023-07-29T02:20:09;729.70;;;692.40;;
11767;SDS011;5941;57.652;12.514;2023-07-29T02:22:36;726.87;;;689.50;;
11767;SDS011;5941;57.652;12.514;2023-07-29T02:25:02;713.27;;;677.33;;
11767;SDS011;5941;57.652;12.514;2023-07-29T02:27:28;706.43;;;670.50;;
11767;SDS011;5941;57.652;12.514;2023-07-29T02:29:54;717.10;;;680.53;;
11767;SDS011;5941;57.652;12.514;2023-07-29T02:32:20;714.30;;;677.73;;
11767;SDS011;5941;57.652;12.514;2023-07-29T02:34:46;713.97;;;677.27;;
11767;SDS011;5941;57.652;12.514;2023-07-29T02:37:12;734.13;;;696.90;;
11767;SDS011;5941;57.652;12.514;2023-07-29T02:39:38;708.80;;;672.93;;
11767;SDS011;5941;57.652;12.514;2023-07-29T02:42:04;705.33;;;669.57;;
11767;SDS011;5941;57.652;12.514;2023-07-29T02:44:30;715.03;;;678.80;;
11767;SDS011;5941;57.652;12.514;2023-07-29T02:46:56;713.00;;;676.93;;
11767;SDS011;5941;57.652;12.514;2023-07-29T02:49:22;708.63;;;673.33;;
11767;SDS011;5941;57.652;12.514;2023-07-29T02:51:49;696.10;;;661.37;;
11767;SDS011;5941;57.652;12.514;2023-07-29T02:54:15;703.57;;;668.13;;
11767;SDS011;5941;57.652;12.514;2023-07-29T02:56:41;714.00;;;677.43;;
11767;SDS011;5941;57.652;12.514;2023-07-29T02:59:07;705.73;;;669.70;;
11767;SDS011;5941;57.652;12.514;2023-07-29T03:01:32;712.93;;;676.87;;
11767;SDS011;5941;57.652;12.514;2023-07-29T03:03:59;709.50;;;673.60;;
11767;SDS011;5941;57.652;12.514;2023-07-29T03:06:25;704.10;;;668.57;;
11767;SDS011;5941;57.652;12.514;2023-07-29T03:08:50;705.20;;;669.63;;
11767;SDS011;5941;57.652;12.514;2023-07-29T03:11:17;699.90;;;664.90;;
11767;SDS011;5941;57.652;12.514;2023-07-29T03:13:43;709.67;;;673.50;;
11767;SDS011;5941;57.652;12.514;2023-07-29T03:16:10;704.70;;;669.77;;
11767;SDS011;5941;57.652;12.514;2023-07-29T03:18:36;692.83;;;657.67;;
11767;SDS011;5941;57.652;12.514;2023-07-29T03:21:02;709.00;;;673.27;;
11767;SDS011;5941;57.652;12.514;2023-07-29T03:23:29;714.87;;;679.30;;
11767;SDS011;5941;57.652;12.514;2023-07-29T03:25:55;726.03;;;689.20;;
11767;SDS011;5941;57.652;12.514;2023-07-29T03:28:26;766.90;;;725.47;;
11767;SDS011;5941;57.652;12.514;2023-07-29T03:30:53;712.83;;;677.00;;
11767;SDS011;5941;57.652;12.514;2023-07-29T03:33:19;680.20;;;647.00;;
11767;SDS011;5941;57.652;12.514;2023-07-29T03:35:45;682.23;;;648.50;;
11767;SDS011;5941;57.652;12.514;2023-07-29T03:38:11;690.27;;;656.53;;
11767;SDS011;5941;57.652;12.514;2023-07-29T03:40:37;693.23;;;658.97;;
11767;SDS011;5941;57.652;12.514;2023-07-29T03:43:03;749.87;;;709.87;;
11767;SDS011;5941;57.652;12.514;2023-07-29T03:45:30;760.67;;;720.20;;
11767;SDS011;5941;57.652;12.514;2023-07-29T03:47:56;742.37;;;703.57;;
11767;SDS011;5941;57.652;12.514;2023-07-29T03:50:22;801.43;;;755.50;;
11767;SDS011;5941;57.652;12.514;2023-07-29T03:52:49;823.33;;;775.77;;
11767;SDS011;5941;57.652;12.514;2023-07-29T03:55:15;847.40;;;797.40;;
11767;SDS011;5941;57.652;12.514;2023-07-29T03:57:41;858.93;;;807.83;;
11767;SDS011;5941;57.652;12.514;2023-07-29T04:00:07;841.63;;;791.27;;
11767;SDS011;5941;57.652;12.514;2023-07-29T04:02:34;856.23;;;805.00;;
11767;SDS011;5941;57.652;12.514;2023-07-29T04:05:02;825.40;;;777.07;;
11767;SDS011;5941;57.652;12.514;2023-07-29T04:07:28;810.33;;;764.60;;
11767;SDS011;5941;57.652;12.514;2023-07-29T04:09:54;801.77;;;756.53;;
11767;SDS011;5941;57.652;12.514;2023-07-29T04:12:21;807.50;;;761.47;;
11767;SDS011;5941;57.652;12.514;2023-07-29T04:14:47;782.13;;;737.60;;
11767;SDS011;5941;57.652;12.514;2023-07-29T04:17:13;771.73;;;729.83;;
11767;SDS011;5941;57.652;12.514;2023-07-29T04:19:39;756.10;;;715.60;;
11767;SDS011;5941;57.652;12.514;2023-07-29T04:22:05;759.00;;;718.87;;
11767;SDS011;5941;57.652;12.514;2023-07-29T04:24:31;759.37;;;718.97;;
11767;SDS011;5941;57.652;12.514;2023-07-29T04:26:57;780.53;;;738.20;;
11767;SDS011;5941;57.652;12.514;2023-07-29T04:29:23;791.67;;;747.90;;
11767;SDS011;5941;57.652;12.514;2023-07-29T04:31:50;787.20;;;743.57;;
11767;SDS011;5941;57.652;12.514;2023-07-29T04:34:16;781.23;;;738.50;;
11767;SDS011;5941;57.652;12.514;2023-07-29T04:36:42;787.17;;;743.70;;
11767;SDS011;5941;57.652;12.514;2023-07-29T04:39:08;805.17;;;760.23;;
11767;SDS011;5941;57.652;12.514;2023-07-29T04:41:34;762.57;;;721.07;;
11767;SDS011;5941;57.652;12.514;2023-07-29T04:44:01;796.17;;;751.77;;
11767;SDS011;5941;57.652;12.514;2023-07-29T04:46:27;799.20;;;754.97;;
11767;SDS011;5941;57.652;12.514;2023-07-29T04:48:52;815.97;;;769.23;;
11767;SDS011;5941;57.652;12.514;2023-07-29T04:51:18;793.30;;;749.93;;
11767;SDS011;5941;57.652;12.514;2023-07-29T04:53:44;815.33;;;768.60;;
11767;SDS011;5941;57.652;12.514;2023-07-29T04:56:11;801.00;;;754.33;;
11767;SDS011;5941;57.652;12.514;2023-07-29T04:58:37;862.13;;;810.27;;
11767;SDS011;5941;57.652;12.514;2023-07-29T05:01:04;852.87;;;802.97;;
11767;SDS011;5941;57.652;12.514;2023-07-29T05:03:30;856.20;;;804.47;;
11767;SDS011;5941;57.652;12.514;2023-07-29T05:05:57;845.87;;;794.80;;
11767;SDS011;5941;57.652;12.514;2023-07-29T05:08:24;870.70;;;816.97;;
11767;SDS011;5941;57.652;12.514;2023-07-29T05:10:50;880.50;;;825.70;;
11767;SDS011;5941;57.652;12.514;2023-07-29T05:13:17;866.23;;;812.67;;
11767;SDS011;5941;57.652;12.514;2023-07-29T05:15:43;886.47;;;830.90;;
11767;SDS011;5941;57.652;12.514;2023-07-29T05:18:09;868.87;;;815.40;;
11767;SDS011;5941;57.652;12.514;2023-07-29T05:20:35;890.53;;;833.30;;
11767;SDS011;5941;57.652;12.514;2023-07-29T05:23:01;892.73;;;835.93;;
11767;SDS011;5941;57.652;12.514;2023-07-29T05:25:27;873.63;;;820.67;;
11767;SDS011;5941;57.652;12.514;2023-07-29T05:27:53;834.37;;;784.93;;
11767;SDS011;5941;57.652;12.514;2023-07-29T05:30:19;793.93;;;748.57;;
11767;SDS011;5941;57.652;12.514;2023-07-29T05:32:45;807.63;;;761.77;;
11767;SDS011;5941;57.652;12.514;2023-07-29T05:35:10;833.07;;;785.13;;
11767;SDS011;5941;57.652;12.514;2023-07-29T05:37:39;881.70;;;826.63;;
11767;SDS011;5941;57.652;12.514;2023-07-29T05:40:06;884.77;;;830.53;;
11767;SDS011;5941;57.652;12.514;2023-07-29T05:42:32;1275.73;;;903.13;;
11767;SDS011;5941;57.652;12.514;2023-07-29T05:44:58;912.93;;;850.70;;
11767;SDS011;5941;57.652;12.514;2023-07-29T05:47:24;1999.90;;;999.90;;
11767;SDS011;5941;57.652;12.514;2023-07-29T05:49:50;1999.90;;;999.90;;
11767;SDS011;5941;57.652;12.514;2023-07-29T05:52:17;1999.90;;;999.90;;
11767;SDS011;5941;57.652;12.514;2023-07-29T05:54:43;973.03;;;902.30;;
11767;SDS011;5941;57.652;12.514;2023-07-29T05:57:09;985.33;;;913.77;;
11767;SDS011;5941;57.652;12.514;2023-07-29T05:59:35;967.17;;;899.27;;
11767;SDS011;5941;57.652;12.514;2023-07-29T06:02:01;1313.87;;;934.10;;
11767;SDS011;5941;57.652;12.514;2023-07-29T06:04:27;982.27;;;910.40;;
11767;SDS011;5941;57.652;12.514;2023-07-29T06:06:53;1335.57;;;951.90;;
11767;SDS011;5941;57.652;12.514;2023-07-29T06:09:20;995.67;;;920.93;;
11767;SDS011;5941;57.652;12.514;2023-07-29T06:11:46;1005.40;;;928.70;;
11767;SDS011;5941;57.652;12.514;2023-07-29T06:14:12;1341.93;;;956.43;;
11767;SDS011;5941;57.652;12.514;2023-07-29T06:16:38;1999.90;;;999.90;;
11767;SDS011;5941;57.652;12.514;2023-07-29T06:19:04;1338.60;;;954.80;;
11767;SDS011;5941;57.652;12.514;2023-07-29T06:21:30;1336.70;;;953.23;;
11767;SDS011;5941;57.652;12.514;2023-07-29T06:23:56;1999.90;;;999.90;;
11767;SDS011;5941;57.652;12.514;2023-07-29T06:26:22;1999.90;;;999.90;;
11767;SDS011;5941;57.652;12.514;2023-07-29T06:28:48;1327.13;;;945.87;;
11767;SDS011;5941;57.652;12.514;2023-07-29T06:31:14;966.63;;;898.60;;
11767;SDS011;5941;57.652;12.514;2023-07-29T06:33:40;1016.77;;;939.33;;
11767;SDS011;5941;57.652;12.514;2023-07-29T06:36:06;990.87;;;917.40;;
11767;SDS011;5941;57.652;12.514;2023-07-29T06:38:32;1332.23;;;950.10;;
11767;SDS011;5941;57.652;12.514;2023-07-29T06:40:58;970.70;;;901.60;;
11767;SDS011;5941;57.652;12.514;2023-07-29T06:43:24;941.93;;;878.37;;
11767;SDS011;5941;57.652;12.514;2023-07-29T06:45:50;902.57;;;843.73;;
11767;SDS011;5941;57.652;12.514;2023-07-29T06:48:16;915.93;;;855.77;;
11767;SDS011;5941;57.652;12.514;2023-07-29T06:50:43;865.63;;;812.10;;
11767;SDS011;5941;57.652;12.514;2023-07-29T06:53:09;857.07;;;805.00;;
11767;SDS011;5941;57.652;12.514;2023-07-29T06:55:35;846.00;;;796.00;;
11767;SDS011;5941;57.652;12.514;2023-07-29T06:58:01;887.07;;;830.97;;
11767;SDS011;5941;57.652;12.514;2023-07-29T07:00:27;851.73;;;800.47;;
11767;SDS011;5941;57.652;12.514;2023-07-29T07:02:53;876.25;;;819.75;;
11767;SDS011;5941;57.652;12.514;2023-07-29T07:05:19;788.93;;;745.00;;
11767;SDS011;5941;57.652;12.514;2023-07-29T07:07:45;892.72;;;834.33;;
11767;SDS011;5941;57.652;12.514;2023-07-29T07:10:12;853.43;;;802.13;;
11767;SDS011;5941;57.652;12.514;2023-07-29T07:12:38;929.03;;;866.65;;
11767;SDS011;5941;57.652;12.514;2023-07-29T07:15:05;793.58;;;748.63;;
11767;SDS011;5941;57.652;12.514;2023-07-29T07:17:31;727.90;;;689.57;;
11767;SDS011;5941;57.652;12.514;2023-07-29T07:19:57;853.10;;;800.67;;
11767;SDS011;5941;57.652;12.514;2023-07-29T07:22:23;893.47;;;836.70;;
11767;SDS011;5941;57.652;12.514;2023-07-29T07:24:49;659.47;;;627.78;;
11767;SDS011;5941;57.652;12.514;2023-07-29T07:27:15;755.13;;;714.22;;
11767;SDS011;5941;57.652;12.514;2023-07-29T07:29:41;710.55;;;674.50;;
11767;SDS011;5941;57.652;12.514;2023-07-29T07:32:07;794.72;;;748.95;;
11767;SDS011;5941;57.652;12.514;2023-07-29T07:34:33;676.35;;;643.30;;
11767;SDS011;5941;57.652;12.514;2023-07-29T07:36:59;810.03;;;763.45;;
11767;SDS011;5941;57.652;12.514;2023-07-29T07:39:25;697.30;;;662.85;;
11767;SDS011;5941;57.652;12.514;2023-07-29T07:41:51;656.45;;;625.42;;
11767;SDS011;5941;57.652;12.514;2023-07-29T07:44:18;628.28;;;599.42;;
11767;SDS011;5941;57.652;12.514;2023-07-29T07:46:44;634.40;;;604.88;;
11767;SDS011;5941;57.652;12.514;2023-07-29T07:49:10;628.75;;;599.63;;
11767;SDS011;5941;57.652;12.514;2023-07-29T07:51:37;624.92;;;595.97;;
11767;SDS011;5941;57.652;12.514;2023-07-29T07:54:03;625.50;;;596.72;;
11767;SDS011;5941;57.652;12.514;2023-07-29T07:56:29;740.22;;;700.90;;
11767;SDS011;5941;57.652;12.514;2023-07-29T07:58:55;634.58;;;604.30;;
11767;SDS011;5941;57.652;12.514;2023-07-29T08:01:21;744.60;;;704.88;;
11767;SDS011;5941;57.652;12.514;2023-07-29T08:03:47;653.03;;;621.85;;
11767;SDS011;5941;57.652;12.514;2023-07-29T08:06:13;616.33;;;587.70;;
11767;SDS011;5941;57.652;12.514;2023-07-29T08:08:39;656.10;;;624.83;;
11767;SDS011;5941;57.652;12.514;2023-07-29T08:11:05;693.63;;;658.78;;
11767;SDS011;5941;57.652;12.514;2023-07-29T08:13:31;631.85;;;602.47;;
11767;SDS011;5941;57.652;12.514;2023-07-29T08:15:57;723.63;;;685.90;;
11767;SDS011;5941;57.652;12.514;2023-07-29T08:18:23;624.65;;;595.50;;
11767;SDS011;5941;57.652;12.514;2023-07-29T08:20:52;804.33;;;757.33;;
11767;SDS011;5941;57.652;12.514;2023-07-29T08:23:19;630.92;;;601.78;;
11767;SDS011;5941;57.652;12.514;2023-07-29T08:25:50;635.15;;;605.63;;
11767;SDS011;5941;57.652;12.514;2023-07-29T08:28:16;773.92;;;730.38;;
11767;SDS011;5941;57.652;12.514;2023-07-29T08:30:42;644.55;;;614.53;;
11767;SDS011;5941;57.652;12.514;2023-07-29T08:33:08;646.50;;;616.10;;
11767;SDS011;5941;57.652;12.514;2023-07-29T08:35:34;624.42;;;595.78;;
11767;SDS011;5941;57.652;12.514;2023-07-29T08:38:00;658.63;;;627.38;;
11767;SDS011;5941;57.652;12.514;2023-07-29T08:40:27;661.90;;;630.08;;
11767;SDS011;5941;57.652;12.514;2023-07-29T08:42:55;672.72;;;640.30;;
11767;SDS011;5941;57.652;12.514;2023-07-29T08:45:22;651.00;;;620.42;;
11767;SDS011;5941;57.652;12.514;2023-07-29T08:47:49;652.17;;;621.58;;
11767;SDS011;5941;57.652;12.514;2023-07-29T08:50:16;666.10;;;634.15;;
11767;SDS011;5941;57.652;12.514;2023-07-29T08:52:42;658.42;;;626.97;;
11767;SDS011;5941;57.652;12.514;2023-07-29T08:55:09;623.33;;;594.25;;
11767;SDS011;5941;57.652;12.514;2023-07-29T08:57:35;604.10;;;576.63;;
11767;SDS011;5941;57.652;12.514;2023-07-29T09:00:01;619.33;;;590.83;;
11767;SDS011;5941;57.652;12.514;2023-07-29T09:02:28;657.80;;;626.38;;
11767;SDS011;5941;57.652;12.514;2023-07-29T09:04:54;604.25;;;576.70;;
11767;SDS011;5941;57.652;12.514;2023-07-29T09:07:20;671.63;;;638.65;;
11767;SDS011;5941;57.652;12.514;2023-07-29T09:09:46;641.67;;;611.75;;
11767;SDS011;5941;57.652;12.514;2023-07-29T09:12:12;688.78;;;654.88;;
11767;SDS011;5941;57.652;12.514;2023-07-29T09:14:38;667.17;;;635.00;;
11767;SDS011;5941;57.652;12.514;2023-07-29T09:17:06;602.38;;;574.75;;
11767;SDS011;5941;57.652;12.514;2023-07-29T09:19:33;641.35;;;611.13;;
11767;SDS011;5941;57.652;12.514;2023-07-29T09:21:59;649.88;;;618.67;;
11767;SDS011;5941;57.652;12.514;2023-07-29T09:24:25;588.75;;;561.83;;
11767;SDS011;5941;57.652;12.514;2023-07-29T09:26:54;626.60;;;597.33;;
11767;SDS011;5941;57.652;12.514;2023-07-29T09:29:24;659.30;;;627.30;;
11767;SDS011;5941;57.652;12.514;2023-07-29T09:31:53;589.47;;;562.83;;
11767;SDS011;5941;57.652;12.514;2023-07-29T09:34:19;652.05;;;620.75;;
11767;SDS011;5941;57.652;12.514;2023-07-29T09:36:45;568.55;;;543.58;;
11767;SDS011;5941;57.652;12.514;2023-07-29T09:39:11;657.55;;;625.67;;
11767;SDS011;5941;57.652;12.514;2023-07-29T09:41:40;654.35;;;622.58;;
11767;SDS011;5941;57.652;12.514;2023-07-29T09:44:06;604.75;;;576.78;;
11767;SDS011;5941;57.652;12.514;2023-07-29T09:46:33;638.80;;;608.22;;
11767;SDS011;5941;57.652;12.514;2023-07-29T09:49:00;688.10;;;653.72;;
11767;SDS011;5941;57.652;12.514;2023-07-29T09:51:27;667.78;;;635.38;;
11767;SDS011;5941;57.652;12.514;2023-07-29T09:53:53;615.88;;;587.15;;
11767;SDS011;5941;57.652;12.514;2023-07-29T09:56:23;620.28;;;591.55;;
11767;SDS011;5941;57.652;12.514;2023-07-29T09:58:50;618.78;;;589.83;;
11767;SDS011;5941;57.652;12.514;2023-07-29T10:01:16;670.88;;;638.30;;
11767;SDS011;5941;57.652;12.514;2023-07-29T10:03:44;727.22;;;689.70;;
11767;SDS011;5941;57.652;12.514;2023-07-29T10:06:10;747.08;;;707.80;;
11767;SDS011;5941;57.652;12.514;2023-07-29T10:08:37;779.42;;;736.13;;
11767;SDS011;5941;57.652;12.514;2023-07-29T10:11:05;758.28;;;717.65;;
11767;SDS011;5941;57.652;12.514;2023-07-29T10:13:31;732.80;;;694.58;;
11767;SDS011;5941;57.652;12.514;2023-07-29T10:15:58;745.85;;;706.65;;
11767;SDS011;5941;57.652;12.514;2023-07-29T10:18:27;749.55;;;710.22;;
11767;SDS011;5941;57.652;12.514;2023-07-29T10:20:53;734.40;;;696.65;;
11767;SDS011;5941;57.652;12.514;2023-07-29T10:23:19;749.80;;;709.80;;
11767;SDS011;5941;57.652;12.514;2023-07-29T10:25:49;840.58;;;788.05;;
11767;SDS011;5941;57.652;12.514;2023-07-29T10:28:15;912.13;;;851.20;;
11767;SDS011;5941;57.652;12.514;2023-07-29T10:30:44;889.38;;;831.47;;
11767;SDS011;5941;57.652;12.514;2023-07-29T10:33:10;883.53;;;827.22;;
11767;SDS011;5941;57.652;12.514;2023-07-29T10:35:36;981.40;;;910.75;;
11767;SDS011;5941;57.652;12.514;2023-07-29T10:38:03;826.38;;;777.13;;
11767;SDS011;5941;57.652;12.514;2023-07-29T10:43:11;1047.32;;;961.55;;
11767;SDS011;5941;57.652;12.514;2023-07-29T10:45:40;1495.43;;;954.17;;
11767;SDS011;5941;57.652;12.514;2023-07-29T10:48:13;1014.95;;;937.75;;
11767;SDS011;5941;57.652;12.514;2023-07-29T10:50:39;1068.82;;;981.25;;
11767;SDS011;5941;57.652;12.514;2023-07-29T10:53:05;1034.10;;;950.95;;
11767;SDS011;5941;57.652;12.514;2023-07-29T10:55:34;1274.00;;;963.58;;
11767;SDS011;5941;57.652;12.514;2023-07-29T10:58:17;1042.65;;;958.97;;
11767;SDS011;5941;57.652;12.514;2023-07-29T11:00:43;983.53;;;911.05;;
11767;SDS011;5941;57.652;12.514;2023-07-29T11:03:09;922.33;;;859.45;;
11767;SDS011;5941;57.652;12.514;2023-07-29T11:05:42;1005.63;;;929.65;;
11767;SDS011;5941;57.652;12.514;2023-07-29T11:10:44;1006.35;;;930.50;;
11767;SDS011;5941;57.652;12.514;2023-07-29T11:13:10;821.38;;;773.00;;
11767;SDS011;5941;57.652;12.514;2023-07-29T11:15:37;910.08;;;850.53;;
11767;SDS011;5941;57.652;12.514;2023-07-29T11:18:04;815.63;;;767.83;;
11767;SDS011;5941;57.652;12.514;2023-07-29T11:20:31;911.80;;;850.55;;
11767;SDS011;5941;57.652;12.514;2023-07-29T11:22:58;892.78;;;835.13;;
11767;SDS011;5941;57.652;12.514;2023-07-29T11:25:26;1043.63;;;958.45;;
11767;SDS011;5941;57.652;12.514;2023-07-29T11:27:52;1002.22;;;928.20;;
11767;SDS011;5941;57.652;12.514;2023-07-29T11:30:18;981.55;;;911.58;;
11767;SDS011;5941;57.652;12.514;2023-07-29T11:32:45;979.53;;;908.72;;
11767;SDS011;5941;57.652;12.514;2023-07-29T11:35:12;779.55;;;737.42;;
11767;SDS011;5941;57.652;12.514;2023-07-29T11:37:40;853.97;;;800.03;;
11767;SDS011;5941;57.652;12.514;2023-07-29T11:40:06;861.15;;;806.83;;
11767;SDS011;5941;57.652;12.514;2023-07-29T11:42:33;860.78;;;807.53;;
11767;SDS011;5941;57.652;12.514;2023-07-29T11:45:00;755.58;;;713.90;;
11767;SDS011;5941;57.652;12.514;2023-07-29T11:47:26;762.42;;;720.40;;
11767;SDS011;5941;57.652;12.514;2023-07-29T11:49:52;804.75;;;758.85;;
11767;SDS011;5941;57.652;12.514;2023-07-29T11:52:19;771.17;;;728.08;;
11767;SDS011;5941;57.652;12.514;2023-07-29T11:54:45;758.60;;;717.90;;
11767;SDS011;5941;57.652;12.514;2023-07-29T11:57:11;787.03;;;743.30;;
11767;SDS011;5941;57.652;12.514;2023-07-29T11:59:38;816.67;;;768.88;;
11767;SDS011;5941;57.652;12.514;2023-07-29T12:02:11;914.65;;;852.55;;
11767;SDS011;5941;57.652;12.514;2023-07-29T12:04:38;922.35;;;858.58;;
11767;SDS011;5941;57.652;12.514;2023-07-29T12:07:05;901.78;;;843.78;;
11767;SDS011;5941;57.652;12.514;2023-07-29T12:09:32;902.65;;;842.95;;
11767;SDS011;5941;57.652;12.514;2023-07-29T12:11:58;832.42;;;782.05;;
11767;SDS011;5941;57.652;12.514;2023-07-29T12:14:31;785.58;;;741.25;;
11767;SDS011;5941;57.652;12.514;2023-07-29T12:16:59;831.55;;;782.40;;
11767;SDS011;5941;57.652;12.514;2023-07-29T12:19:30;776.13;;;732.72;;
11767;SDS011;5941;57.652;12.514;2023-07-29T12:21:56;799.40;;;753.22;;
11767;SDS011;5941;57.652;12.514;2023-07-29T12:24:22;784.17;;;739.65;;
11767;SDS011;5941;57.652;12.514;2023-07-29T12:26:48;830.45;;;779.95;;
11767;SDS011;5941;57.652;12.514;2023-07-29T12:29:15;815.38;;;767.67;;
11767;SDS011;5941;57.652;12.514;2023-07-29T12:31:41;872.10;;;818.33;;
11767;SDS011;5941;57.652;12.514;2023-07-29T12:34:07;851.40;;;798.90;;
11767;SDS011;5941;57.652;12.514;2023-07-29T12:36:41;866.92;;;812.45;;
11767;SDS011;5941;57.652;12.514;2023-07-29T12:39:15;876.72;;;822.03;;
11767;SDS011;5941;57.652;12.514;2023-07-29T12:41:41;821.90;;;772.97;;
11767;SDS011;5941;57.652;12.514;2023-07-29T12:44:07;841.08;;;791.20;;
11767;SDS011;5941;57.652;12.514;2023-07-29T12:46:33;827.00;;;777.85;;
11767;SDS011;5941;57.652;12.514;2023-07-29T12:48:59;865.08;;;811.85;;
11767;SDS011;5941;57.652;12.514;2023-07-29T12:51:25;861.25;;;808.08;;
11767;SDS011;5941;57.652;12.514;2023-07-29T12:53:51;868.70;;;813.97;;
11767;SDS011;5941;57.652;12.514;2023-07-29T12:56:17;892.38;;;835.38;;
11767;SDS011;5941;57.652;12.514;2023-07-29T12:58:49;875.60;;;819.95;;
11767;SDS011;5941;57.652;12.514;2023-07-29T13:01:15;883.13;;;826.28;;
11767;SDS011;5941;57.652;12.514;2023-07-29T13:03:44;850.38;;;799.03;;
11767;SDS011;5941;57.652;12.514;2023-07-29T13:06:11;865.92;;;812.28;;
11767;SDS011;5941;57.652;12.514;2023-07-29T13:08:37;816.17;;;769.28;;
11767;SDS011;5941;57.652;12.514;2023-07-29T13:11:03;795.33;;;750.15;;
11767;SDS011;5941;57.652;12.514;2023-07-29T13:13:29;778.53;;;735.03;;
11767;SDS011;5941;57.652;12.514;2023-07-29T13:15:56;848.10;;;796.15;;
11767;SDS011;5941;57.652;12.514;2023-07-29T13:18:22;872.53;;;819.03;;
11767;SDS011;5941;57.652;12.514;2023-07-29T13:20:48;844.53;;;793.70;;
11767;SDS011;5941;57.652;12.514;2023-07-29T13:23:17;863.70;;;809.33;;
11767;SDS011;5941;57.652;12.514;2023-07-29T13:25:43;808.88;;;762.10;;
11767;SDS011;5941;57.652;12.514;2023-07-29T13:28:09;772.92;;;729.97;;
11767;SDS011;5941;57.652;12.514;2023-07-29T13:30:35;864.65;;;811.25;;
11767;SDS011;5941;57.652;12.514;2023-07-29T13:33:02;859.72;;;807.35;;
11767;SDS011;5941;57.652;12.514;2023-07-29T13:35:28;856.95;;;804.38;;
11767;SDS011;5941;57.652;12.514;2023-07-29T13:37:54;857.90;;;805.17;;
11767;SDS011;5941;57.652;12.514;2023-07-29T13:40:20;868.53;;;814.20;;
11767;SDS011;5941;57.652;12.514;2023-07-29T13:42:46;890.15;;;833.65;;
11767;SDS011;5941;57.652;12.514;2023-07-29T13:45:12;886.15;;;829.83;;
11767;SDS011;5941;57.652;12.514;2023-07-29T13:47:38;894.22;;;837.40;;
11767;SDS011;5941;57.652;12.514;2023-07-29T13:50:04;874.15;;;819.83;;
11767;SDS011;5941;57.652;12.514;2023-07-29T13:52:32;888.45;;;831.85;;
11767;SDS011;5941;57.652;12.514;2023-07-29T13:54:58;893.88;;;837.13;;
11767;SDS011;5941;57.652;12.514;2023-07-29T13:57:24;887.53;;;830.83;;
11767;SDS011;5941;57.652;12.514;2023-07-29T13:59:50;861.17;;;808.42;;
11767;SDS011;5941;57.652;12.514;2023-07-29T14:02:16;882.72;;;826.53;;